Aktualne dane pomiarowe

Uwaga, wersja testowa! Automatyczne pobieranie danych za pomocą narzędzi lub skryptów to umożliwiających jest zabronione.

Dane meteo z obszaru Polski uzyskane na podstawie depesz SYNOP pobieranych co godzinę z NWS. Najedź myszką na symbol przedstawiony w tabeli, aby uzyskać informacje co do jego znaczenia. Prosimy pamiętać, że to testowa wersja strony, która jeszcze nie jest ukończona. Stworzono również jest krótki FAQ dotyczący korzystania z tej podstrony Anomalie temperatury w chwili obecnej odniesione są do okresu referencyjnego 1951-2016. Okres ten będzie później zmieniony na 1981-2010. Kliknij ikonę aby pobrać plik CSV. Kliknij ikonę aby wygenerować mapę synoptyczną dla danego terminu.

Wybierz Datę:    

        

Wieluń (12455)

Dane terminowe dla wybranej stacji. Kliknij datę, aby otrzymać dane z tego terminu dla wszystkich stacji.

TemperaturaZachmurzenieWiatrCiśnienieOpadyPogoda
 Data t td wb tx tn tg rh  Nt Nl Cl Cm Ch ws wd g1 g2 wx mslp ppp ch 24h 12h t ww ww w1 w2  
2019-06-22 23:00:00 16.5 9.9 12.4--- 6545.0wx-wx3wx--31020.8 997.1 0.7---------
2019-06-22 22:00:00 17.5 9.6 12.7--- 6045.0wx-wx2wx--21020.9 997.3 1.1---------
2019-06-22 21:00:00 18.5 8.5 12.7--- 5240.0wx-wx2wx--21020.4 996.9 0.4---------
2019-06-22 20:00:00 20.0 7.7 13.0--- 4550.0wx-wx2wx--21019.8 996.4 -0.1---------
2019-06-22 19:00:00 21.4 7.2 13.4--- 4050.0wx-wx3wx--31019.5 996.2 -0.6---------
2019-06-22 18:00:00 23.0 7.1 14.1 24.8 19.6- 3650.0wx-wx4wx-841019.6 996.5 -0.3- 0.012------
2019-06-22 17:00:00 23.8 7.8 14.7--- 3640.0wxwxwxwx3wx--31019.6 996.5 -0.8---------
2019-06-22 16:00:00 24.4 8.4 15.2--- 3635.0wxwxwxwx3wx--31019.8 996.8 -0.9---------
2019-06-22 15:00:00 24.5 9.2 15.6--- 3840.0wxwxwxwx3wx-831019.8 996.8 -1.3---------
2019-06-22 14:00:00 24.5 8.8 15.5--- 3730.0wxwxwxwx4wx--41020.3 997.3 -1.2---------
2019-06-22 13:00:00 24.3 9.5 15.7--- 3935.0wxwxwxwx3wx8831020.8 997.7 -1.1---------
2019-06-22 12:00:00 24.3 9.1 15.5--- 3830.0wxwxwxwx3wx---1021.2 998.1 -0.6---------
2019-06-22 11:00:00 23.7 8.9 15.2--- 3935.0wxwxwxwx3wx---1021.6 998.5 -0.1---------
2019-06-22 10:00:00 22.9 10.3 15.4--- 4540.0wxwxwxwx3wx--31022.0 998.8 0.3---------
2019-06-22 09:00:00 22.9 11.6 16.0--- 4930.0wxwxwxwx3wx--31021.9 998.7 0.4---------
2019-06-22 08:00:00 22.4 13.5 16.8--- 5722.0wxwxwxwx2wx--21021.8 998.6 0.7---------
2019-06-22 07:00:00 20.8 13.5 16.1--- 6327.0wxwxwxwx3wx--31021.9 998.5 0.9---------
2019-06-22 06:00:00 19.6 14.0 15.9 23.7 16.9 16 7026.0wxwxwxwxwx4wx--41021.7 998.3 1.3--12----- 11.7
2019-06-22 05:00:00 18.8 14.9 16.1--- 7813.0wx-wxwx3wx--31021.4 997.9 1.5---------
2019-06-22 04:00:00 17.8 15.6 16.2--- 8710.0wxwxwxwxwx2wx--21021.2 997.6 1.6---------
2019-06-22 03:00:00 17.1 16.0 16.3--- 937.0wxwxwx3wx--31020.6 997.0 1.1---wx---
2019-06-22 02:00:00 17.0 15.5 15.9--- 9112.0wx-wxwx2wx--21020.0 996.4 1.0---------
2019-06-22 01:00:00 17.4 15.2 15.8--- 8720.0wx-wx2wx--21019.6 996.0 0.8---------
2019-06-22 00:00:00 18.4 15.1 16.1--- 8135.0wx-wx2wx--21019.4 995.9 1.4--6wx---
2019-06-21 23:00:00 18.8 15.1 16.3--- 7925.0wxwxwxwx1wx--11018.8 995.4 1.4---wx---
2019-06-21 22:00:00 19.2 15.9 16.9--- 8130.0wx-wx2wx--21018.6 995.2 1.7---------
2019-06-21 21:00:00 19.6 14.8 16.4--- 7430.0wxwxwxwxwx1wx--11017.9 994.5 1.3---------
2019-06-21 20:00:00 20.5 15.3 17.0--- 7227.0wxwxwxwxwx1wx--11017.3 994.0 1.4---------
2019-06-21 19:00:00 21.5 14.4 16.9--- 6445.0wxwxwxwxwx1wx--11016.7 993.5 1.1---------
2019-06-21 18:00:00 23.7 14.1 17.6 26.8 20.4- 5550.0wxwxwxwxwx2wx-1021016.2 993.2 0.9- 0.012------
2019-06-21 17:00:00 24.1 13.6 17.5--- 5235.0wxwxwxwxwx2wx---1015.6 992.6 0.2---------
2019-06-21 16:00:00 23.0 13.7 17.1--- 5645.0wxwxwxwxwx3wx--31015.4 992.4 0.3---------
2019-06-21 15:00:00 23.4 13.6 17.2--- 5435.0wxwxwxwxwx4wx---1015.3 992.3 0.1---------
2019-06-21 14:00:00 25.8 14.0 18.4--- 4830.0wxwxwxwx4wx-1041015.2 992.4 0.4---------
2019-06-21 13:00:00 26.5 14.6 19.0--- 4840.0wxwxwxwxwx4wx--41014.9 992.1 0.0---------
2019-06-21 12:00:00 26.3 15.0 19.1--- 5035.0wxwxwxwxwx4wx-1041015.0 992.2 0.3- 0.06------
2019-06-21 11:00:00 24.9 15.8 19.0--- 5735.0wxwxwxwxwx5wx---1014.9 992.0 0.5---------
2019-06-21 10:00:00 24.7 16.7 19.4--- 6125.0wxwxwxwxwx4wx---1015.0 992.1 0.7---------
2019-06-21 09:00:00 25.3 16.4 19.5--- 5828.0wxwxwxwxwx4wx--41014.7 991.9 0.6---------
2019-06-21 08:00:00 24.7 17.4 19.8--- 6423.0wx-wxwx2wx--21014.4 991.5 0.6---------
2019-06-21 07:00:00 22.1 17.0 18.6--- 7319.0wxwxwxwxwx1wx--11014.5 991.4 1.1---------
2019-06-21 06:00:00 20.4 16.6 17.8 23.5 15.1 13 7915.0wxwxwxwxwx2wx--21014.5 991.3 1.3 0.1 0.112----- 9.8
2019-06-21 05:00:00 19.1 16.5 17.3--- 8510.0wx-wxwx2wx--21014.2 990.9 1.4---------
2019-06-21 04:00:00 17.3 16.2 16.5--- 939.0wx-wxwx1wx--11013.7 990.3 1.1---wx---
2019-06-21 03:00:00 15.4 14.3 14.6--- 934.6wx-wx1wx--11013.6 990.0 0.9---wx---
2019-06-21 02:00:00 15.9 14.6 15.0--- 928.0wx-wx1wx--11013.0 989.5 0.7---wx---
2019-06-21 01:00:00 16.4 15.1 15.5--- 928.0wx-wxwx1wx--11012.7 989.2 0.4---wx---
2019-06-21 00:00:00 16.8 15.0 15.5--- 8913.0wx-wxwx1wx--11012.6 989.1 0.4- 0.16wx-w1--
2.4 ms

 

Print Friendly, PDF & Email